Time;durP1;ratioP1;P1;durP2;ratioP2;P2;SDS_P1;SDS_P2;PMS_P1;PMS_P2;Temp;Humidity;BMP_temperature;BMP_pressure;BME280_temperature;BME280_humidity;BME280_pressure;Samples;Min_cycle;Max_cycle;Signal;HPM_P1;HPM_P2
2022/10/21 00:00:13;;;;;;;16.90;10.67;;;14.90;99.90;;;;;;5051514;28;20226;-61
2022/10/21 00:02:39;;;;;;;15.67;10.40;;;14.80;99.90;;;;;;5052087;28;20205;-61
2022/10/21 00:05:06;;;;;;;21.03;12.03;;;14.90;99.90;;;;;;5052088;28;20209;-61
2022/10/21 00:07:35;;;;;;;19.17;10.53;;;14.80;99.90;;;;;;5051710;28;20213;-61
2022/10/21 00:10:02;;;;;;;18.97;10.80;;;14.80;99.90;;;;;;5051545;28;20229;-61
2022/10/21 00:12:30;;;;;;;17.87;9.80;;;14.80;99.90;;;;;;5051909;28;20212;-61
2022/10/21 00:14:57;;;;;;;17.80;10.60;;;14.80;99.90;;;;;;5051947;28;20209;-60
2022/10/21 00:17:23;;;;;;;18.13;10.77;;;14.80;99.90;;;;;;5051494;28;20198;-61
2022/10/21 00:19:50;;;;;;;24.57;10.60;;;14.80;99.90;;;;;;5052702;28;20723;-61
2022/10/21 00:22:17;;;;;;;16.80;10.20;;;14.80;99.90;;;;;;5052587;28;20251;-61
2022/10/21 00:24:45;;;;;;;20.60;9.80;;;14.80;99.90;;;;;;5051627;28;20209;-61
2022/10/21 00:27:12;;;;;;;16.13;9.83;;;14.80;99.90;;;;;;5051330;28;20201;-61
2022/10/21 00:29:38;;;;;;;15.67;9.93;;;14.80;99.90;;;;;;5051343;28;20237;-61
2022/10/21 00:32:05;;;;;;;16.63;10.73;;;14.80;99.90;;;;;;5051772;28;20344;-61
2022/10/21 00:34:32;;;;;;;15.67;9.90;;;14.80;99.90;;;;;;5051661;28;20583;-60
2022/10/21 00:36:59;;;;;;;17.47;10.23;;;14.80;99.90;;;;;;5050981;28;20672;-61
2022/10/21 00:39:25;;;;;;;15.33;9.90;;;14.80;99.90;;;;;;5050848;28;20225;-61
2022/10/21 00:41:53;;;;;;;18.40;10.40;;;14.80;99.90;;;;;;5051353;28;20240;-60
2022/10/21 00:44:20;;;;;;;14.13;9.63;;;14.80;99.90;;;;;;5051612;28;20209;-61
2022/10/21 00:46:50;;;;;;;17.83;10.00;;;14.80;99.90;;;;;;5051410;28;20259;-60
2022/10/21 00:49:21;;;;;;;17.33;9.30;;;14.80;99.90;;;;;;5051441;28;20600;-60
2022/10/21 00:51:51;;;;;;;17.23;9.60;;;14.90;99.90;;;;;;5051497;28;20823;-60
2022/10/21 00:54:23;;;;;;;18.90;9.87;;;14.80;99.90;;;;;;5051260;28;20617;-59
2022/10/21 00:56:51;;;;;;;14.50;9.40;;;14.80;99.90;;;;;;5051384;28;20213;-60
2022/10/21 00:59:20;;;;;;;18.90;9.43;;;14.80;99.90;;;;;;5051259;28;20206;-61
2022/10/21 01:01:48;;;;;;;19.63;9.53;;;14.80;99.90;;;;;;5051365;28;20202;-60
2022/10/21 01:04:15;;;;;;;14.67;9.73;;;14.80;99.90;;;;;;5051415;28;20235;-61
2022/10/21 01:06:43;;;;;;;19.73;9.47;;;14.70;99.90;;;;;;5050994;28;20260;-60
2022/10/21 01:09:10;;;;;;;13.90;9.60;;;14.70;99.90;;;;;;5051235;28;20206;-61
2022/10/21 01:11:41;;;;;;;16.63;9.07;;;14.70;99.90;;;;;;5051303;28;20209;-59
2022/10/21 01:14:37;;;;;;;16.00;10.27;;;14.70;99.90;;;;;;5051502;28;20214;-60
2022/10/21 01:17:13;;;;;;;17.87;10.07;;;14.60;99.90;;;;;;5051046;28;20675;-60
2022/10/21 01:20:14;;;;;;;15.83;10.80;;;14.60;99.90;;;;;;5050947;28;20477;-61
2022/10/21 01:23:06;;;;;;;17.30;9.80;;;14.60;99.90;;;;;;5045323;28;20307;-61
2022/10/21 01:25:51;;;;;;;15.27;10.23;;;14.60;99.90;;;;;;5051249;28;20206;-61
2022/10/21 01:28:30;;;;;;;18.00;9.60;;;14.50;99.90;;;;;;5051436;28;20205;-60
2022/10/21 01:31:01;;;;;;;15.50;9.33;;;14.50;99.90;;;;;;5051660;28;20225;-60
2022/10/21 01:33:40;;;;;;;14.47;9.50;;;14.50;99.90;;;;;;5054676;28;20588;-61
2022/10/21 01:36:20;;;;;;;15.47;10.17;;;14.50;99.90;;;;;;5054208;28;20209;-61
2022/10/21 01:38:59;;;;;;;14.93;9.10;;;14.40;99.90;;;;;;5054794;28;20274;-60
2022/10/21 01:41:31;;;;;;;16.57;10.10;;;14.40;99.90;;;;;;5054534;28;20288;-60
2022/10/21 01:44:06;;;;;;;14.63;9.70;;;14.40;99.90;;;;;;5054669;28;20210;-61
2022/10/21 01:46:42;;;;;;;15.70;9.60;;;14.30;99.90;;;;;;5054061;28;20209;-62
2022/10/21 01:49:16;;;;;;;16.07;9.47;;;14.30;99.90;;;;;;5054360;28;20251;-60
2022/10/21 01:51:43;;;;;;;15.77;9.77;;;14.30;99.90;;;;;;5054332;28;20201;-61
2022/10/21 01:54:14;;;;;;;15.50;9.17;;;14.20;99.90;;;;;;5054389;28;20206;-61
2022/10/21 01:56:43;;;;;;;13.70;9.20;;;14.20;99.90;;;;;;5053753;28;20210;-60
2022/10/21 01:59:11;;;;;;;17.80;10.23;;;14.10;99.90;;;;;;5053944;28;20634;-60
2022/10/21 02:01:40;;;;;;;13.77;9.07;;;14.10;99.90;;;;;;5054159;28;20202;-61
2022/10/21 02:04:08;;;;;;;18.17;9.23;;;14.00;99.90;;;;;;5054095;28;20210;-61
2022/10/21 02:06:35;;;;;;;15.33;9.30;;;14.00;99.90;;;;;;5053892;28;20588;-60
2022/10/21 02:09:02;;;;;;;14.30;8.67;;;14.00;99.90;;;;;;5053782;28;20213;-60
2022/10/21 02:11:29;;;;;;;12.70;8.33;;;14.00;99.90;;;;;;5053689;28;20222;-60
2022/10/21 02:13:58;;;;;;;12.40;7.97;;;14.00;99.90;;;;;;5054016;28;20201;-60
2022/10/21 02:16:29;;;;;;;13.17;7.90;;;13.90;99.90;;;;;;5053745;28;20214;-60
2022/10/21 02:18:59;;;;;;;16.00;8.37;;;13.90;99.90;;;;;;5053953;28;20253;-60
2022/10/21 02:21:29;;;;;;;10.67;7.93;;;13.90;99.90;;;;;;5054172;28;20193;-60
2022/10/21 02:23:58;;;;;;;13.17;7.73;;;13.90;99.90;;;;;;5053686;28;20210;-61
2022/10/21 02:26:27;;;;;;;11.77;7.53;;;13.80;99.90;;;;;;5053677;28;20202;-60
2022/10/21 02:28:56;;;;;;;12.27;7.50;;;13.80;99.90;;;;;;5053423;28;20213;-60
2022/10/21 02:31:42;;;;;;;10.33;6.87;;;13.80;99.90;;;;;;5053537;28;20573;-60
2022/10/21 02:34:20;;;;;;;10.17;6.50;;;13.70;99.90;;;;;;5053578;28;20668;-61
2022/10/21 02:36:54;;;;;;;10.93;6.00;;;13.70;99.90;;;;;;5053394;28;20231;-60
2022/10/21 02:39:27;;;;;;;9.43;6.27;;;13.70;99.90;;;;;;5053646;28;20229;-60
2022/10/21 02:41:55;;;;;;;8.20;5.13;;;13.70;99.90;;;;;;5052982;28;20264;-60
2022/10/21 02:44:22;;;;;;;10.63;6.27;;;13.60;99.90;;;;;;5052791;28;20210;-60
2022/10/21 02:46:49;;;;;;;9.50;5.17;;;13.60;99.90;;;;;;5052987;28;20205;-61
2022/10/21 02:49:18;;;;;;;8.63;4.57;;;13.60;99.90;;;;;;5053347;28;20209;-61
2022/10/21 02:51:45;;;;;;;7.93;5.17;;;13.60;99.90;;;;;;5053221;28;20225;-60
2022/10/21 02:54:12;;;;;;;7.60;4.60;;;13.60;99.90;;;;;;5053116;28;20251;-60
2022/10/21 02:56:38;;;;;;;5.03;3.93;;;13.60;99.90;;;;;;5052802;28;20276;-60
2022/10/21 02:59:05;;;;;;;4.90;3.73;;;13.60;99.90;;;;;;5052951;28;20738;-60
2022/10/21 03:01:32;;;;;;;8.63;4.43;;;13.80;99.90;;;;;;5052890;28;20263;-57
2022/10/21 03:03:58;;;;;;;6.30;3.47;;;13.90;99.90;;;;;;5053144;28;20206;-60
2022/10/21 03:06:26;;;;;;;5.80;3.83;;;14.00;99.90;;;;;;5052685;28;20214;-59
2022/10/21 03:08:53;;;;;;;5.03;3.57;;;14.10;99.90;;;;;;5053123;28;20206;-59
2022/10/21 03:11:19;;;;;;;5.70;3.30;;;14.20;99.90;;;;;;5052492;28;20233;-60
2022/10/21 03:13:46;;;;;;;7.87;3.27;;;14.30;99.90;;;;;;5052694;28;20271;-60
2022/10/21 03:16:13;;;;;;;7.23;3.83;;;14.30;99.90;;;;;;5052359;28;20263;-59
2022/10/21 03:18:39;;;;;;;6.90;3.73;;;14.30;99.90;;;;;;5052816;28;20205;-60
2022/10/21 03:21:06;;;;;;;8.10;3.00;;;14.40;99.90;;;;;;5052710;28;20299;-58
2022/10/21 03:23:34;;;;;;;8.77;3.20;;;14.40;99.90;;;;;;5052600;28;20267;-59
2022/10/21 03:26:01;;;;;;;4.50;3.67;;;14.40;99.90;;;;;;5052147;28;20209;-59
2022/10/21 03:28:29;;;;;;;4.87;2.90;;;14.40;99.90;;;;;;5052404;28;20215;-59
2022/10/21 03:30:56;;;;;;;6.13;3.70;;;14.40;99.90;;;;;;5052438;28;20328;-60
2022/10/21 03:33:22;;;;;;;6.77;2.80;;;14.40;99.90;;;;;;5052704;28;20206;-60
2022/10/21 03:35:49;;;;;;;5.90;3.10;;;14.40;99.90;;;;;;5052369;28;20259;-60
2022/10/21 03:38:16;;;;;;;7.53;3.00;;;14.40;99.90;;;;;;5052106;28;20259;-60
2022/10/21 03:40:44;;;;;;;4.53;3.57;;;14.40;99.90;;;;;;5052216;28;20229;-60
2022/10/21 03:43:11;;;;;;;5.40;3.47;;;14.40;99.90;;;;;;5052004;28;20213;-60
2022/10/21 03:45:37;;;;;;;4.90;3.50;;;14.30;99.90;;;;;;5052139;28;20260;-61
2022/10/21 03:48:04;;;;;;;5.47;3.70;;;14.30;99.90;;;;;;5052053;28;20251;-60
2022/10/21 03:50:31;;;;;;;8.13;3.47;;;14.30;99.90;;;;;;5051917;28;20275;-60
2022/10/21 03:52:58;;;;;;;6.63;3.60;;;14.20;99.90;;;;;;5052095;28;20210;-60
2022/10/21 03:55:25;;;;;;;9.50;3.97;;;14.30;99.90;;;;;;5051616;28;20206;-60
2022/10/21 03:57:53;;;;;;;6.43;3.60;;;14.30;99.90;;;;;;5051678;28;20212;-59
2022/10/21 04:00:20;;;;;;;7.20;3.70;;;14.30;99.90;;;;;;5052103;28;20786;-60
2022/10/21 04:02:47;;;;;;;9.93;3.90;;;14.30;99.90;;;;;;5051863;28;20259;-60
2022/10/21 04:05:14;;;;;;;5.53;3.20;;;14.30;99.90;;;;;;5052079;28;20202;-60
2022/10/21 04:07:41;;;;;;;4.90;3.30;;;14.30;99.90;;;;;;5051605;28;20612;-60
2022/10/21 04:10:09;;;;;;;5.97;3.30;;;14.30;99.90;;;;;;5051636;28;20229;-60
2022/10/21 04:12:36;;;;;;;6.87;3.60;;;14.30;99.90;;;;;;5051978;28;20213;-60
2022/10/21 04:15:05;;;;;;;6.90;3.20;;;14.30;99.90;;;;;;5051798;28;20209;-60
2022/10/21 04:17:32;;;;;;;4.60;3.03;;;14.30;99.90;;;;;;5051605;28;20209;-60
2022/10/21 04:19:58;;;;;;;6.23;3.40;;;14.40;99.90;;;;;;5051743;28;20229;-60
2022/10/21 04:22:25;;;;;;;5.13;2.87;;;14.30;99.90;;;;;;5051614;28;20612;-60
2022/10/21 04:24:51;;;;;;;8.40;3.50;;;14.30;99.90;;;;;;5051432;28;20209;-59
2022/10/21 04:27:18;;;;;;;4.87;3.13;;;14.30;99.90;;;;;;5051512;28;20257;-58
2022/10/21 04:29:45;;;;;;;5.50;3.03;;;14.30;99.90;;;;;;5051639;28;20287;-59
2022/10/21 04:32:13;;;;;;;7.73;3.40;;;14.30;99.90;;;;;;5051542;28;20260;-60
2022/10/21 04:34:39;;;;;;;5.83;3.50;;;14.30;99.90;;;;;;5051680;28;20378;-60
2022/10/21 04:37:06;;;;;;;7.63;3.27;;;14.30;99.90;;;;;;5051199;28;20209;-60
2022/10/21 04:39:33;;;;;;;8.27;3.73;;;14.20;99.90;;;;;;5033541;28;20795;-60
2022/10/21 04:41:59;;;;;;;4.83;3.23;;;14.30;99.90;;;;;;5051574;28;20227;-60
2022/10/21 04:44:26;;;;;;;7.40;3.23;;;14.30;99.90;;;;;;5051749;28;20202;-60
2022/10/21 04:46:53;;;;;;;6.87;2.73;;;14.30;99.90;;;;;;5051151;28;20698;-60
2022/10/21 04:49:21;;;;;;;5.27;3.07;;;14.40;99.90;;;;;;5051230;28;20272;-58
2022/10/21 04:51:47;;;;;;;4.53;2.87;;;14.40;99.90;;;;;;5051134;28;20226;-60
2022/10/21 04:54:14;;;;;;;5.70;3.10;;;14.50;99.90;;;;;;5051352;28;20618;-60
2022/10/21 04:56:41;;;;;;;6.73;3.33;;;14.50;99.90;;;;;;5051323;28;20690;-60
2022/10/21 04:59:08;;;;;;;8.63;2.80;;;14.50;99.90;;;;;;5051250;28;20673;-60
2022/10/21 05:01:35;;;;;;;6.80;3.10;;;14.50;99.90;;;;;;5051380;28;20202;-60
2022/10/21 05:04:01;;;;;;;3.97;3.03;;;14.50;99.90;;;;;;5051331;28;20267;-60
2022/10/21 05:06:29;;;;;;;7.47;3.23;;;14.50;99.90;;;;;;5053026;28;20206;-60
2022/10/21 05:08:56;;;;;;;4.70;2.70;;;14.50;99.90;;;;;;5055256;28;20205;-60
2022/10/21 05:11:22;;;;;;;4.70;2.90;;;14.60;99.90;;;;;;5054912;28;20230;-60
2022/10/21 05:13:49;;;;;;;8.73;2.80;;;14.50;99.90;;;;;;5055183;28;20210;-60
2022/10/21 05:16:16;;;;;;;7.23;2.70;;;14.60;99.90;;;;;;5054714;28;20202;-60
2022/10/21 05:18:43;;;;;;;8.03;2.53;;;14.50;99.90;;;;;;5054740;28;20209;-60
2022/10/21 05:21:09;;;;;;;5.60;2.80;;;14.50;99.90;;;;;;5055020;28;20226;-60
2022/10/21 05:23:37;;;;;;;4.00;2.43;;;14.50;99.90;;;;;;5055092;28;20205;-60
2022/10/21 05:26:04;;;;;;;5.27;3.30;;;14.50;99.90;;;;;;5054838;28;20244;-60
2022/10/21 05:28:31;;;;;;;7.17;3.07;;;14.50;99.90;;;;;;5054486;28;20214;-60
2022/10/21 05:30:58;;;;;;;4.27;3.10;;;14.50;99.90;;;;;;5054517;28;20649;-60
2022/10/21 05:33:24;;;;;;;6.23;2.80;;;14.50;99.90;;;;;;5054298;28;20721;-60
2022/10/21 05:35:59;;;;;;;5.10;3.00;;;14.50;99.90;;;;;;5054789;28;20283;-58
2022/10/21 05:38:26;;;;;;;7.40;3.03;;;14.50;99.90;;;;;;5054183;28;20275;-61
2022/10/21 05:40:55;;;;;;;4.13;2.93;;;14.50;99.90;;;;;;5054579;28;20225;-60
2022/10/21 05:43:22;;;;;;;8.07;3.13;;;14.50;99.90;;;;;;5054532;28;20210;-60
2022/10/21 05:45:49;;;;;;;6.83;2.83;;;14.50;99.90;;;;;;5054514;28;20206;-60
2022/10/21 05:48:17;;;;;;;7.70;2.90;;;14.50;99.90;;;;;;5054040;28;20206;-60
2022/10/21 05:50:44;;;;;;;6.20;2.73;;;14.40;99.90;;;;;;5054143;28;20222;-60
2022/10/21 05:53:10;;;;;;;4.63;3.07;;;14.40;99.90;;;;;;5054495;28;20205;-60
2022/10/21 05:55:37;;;;;;;8.17;2.97;;;14.40;99.90;;;;;;5054218;28;20255;-61
2022/10/21 05:58:05;;;;;;;7.83;2.60;;;14.40;99.90;;;;;;5054017;28;20210;-60
2022/10/21 06:00:32;;;;;;;6.13;3.40;;;14.30;99.90;;;;;;5054026;28;20233;-61
2022/10/21 06:02:58;;;;;;;4.63;3.17;;;14.30;99.90;;;;;;5054074;28;20259;-60
2022/10/21 06:05:25;;;;;;;3.73;2.40;;;14.30;99.90;;;;;;5054183;28;20202;-61
2022/10/21 06:07:52;;;;;;;3.13;2.57;;;14.30;99.90;;;;;;5053733;28;20624;-61
2022/10/21 06:10:19;;;;;;;4.00;2.60;;;14.20;99.90;;;;;;5053902;28;20233;-60
2022/10/21 06:12:45;;;;;;;5.60;2.87;;;14.20;99.90;;;;;;5053709;28;20724;-61
2022/10/21 06:15:13;;;;;;;5.33;2.37;;;14.20;99.90;;;;;;5053553;28;20201;-60
2022/10/21 06:17:40;;;;;;;3.27;2.70;;;14.20;99.90;;;;;;5053993;28;20213;-60
2022/10/21 06:20:07;;;;;;;6.10;2.97;;;14.20;99.90;;;;;;5054073;28;20793;-61
2022/10/21 06:22:34;;;;;;;5.93;3.03;;;14.20;99.90;;;;;;5053833;28;20689;-60
2022/10/21 06:25:00;;;;;;;3.57;2.43;;;14.10;99.90;;;;;;5053710;28;20202;-61
2022/10/21 06:27:27;;;;;;;4.13;3.07;;;14.00;99.90;;;;;;5053403;28;20206;-60
2022/10/21 06:29:54;;;;;;;6.53;2.80;;;13.90;99.90;;;;;;5053367;28;20260;-60
2022/10/21 06:32:22;;;;;;;6.00;3.37;;;14.00;99.90;;;;;;5053601;28;20226;-60
2022/10/21 06:34:48;;;;;;;4.33;2.70;;;14.00;99.90;;;;;;5053433;28;20206;-60
2022/10/21 06:37:15;;;;;;;4.70;2.80;;;14.00;99.90;;;;;;5053296;28;20212;-60
2022/10/21 06:39:41;;;;;;;3.87;2.60;;;14.00;99.90;;;;;;5053346;28;20237;-61
2022/10/21 06:42:08;;;;;;;4.43;2.50;;;14.00;99.90;;;;;;5053559;28;20201;-59
2022/10/21 06:44:35;;;;;;;7.23;3.00;;;14.00;99.90;;;;;;5053590;28;20210;-59
2022/10/21 06:47:01;;;;;;;5.37;2.57;;;14.10;99.90;;;;;;5052944;28;20741;-60
2022/10/21 06:49:30;;;;;;;4.80;2.90;;;14.10;99.90;;;;;;5053283;28;20233;-60
2022/10/21 06:51:57;;;;;;;6.10;2.83;;;14.10;99.90;;;;;;5053202;28;20645;-60
2022/10/21 06:54:23;;;;;;;5.37;2.70;;;14.20;99.90;;;;;;5053002;28;20206;-60
2022/10/21 06:56:50;;;;;;;6.50;2.73;;;14.20;99.90;;;;;;5052582;28;20210;-60
2022/10/21 06:59:17;;;;;;;5.73;3.17;;;14.20;99.90;;;;;;5052913;28;20205;-60
2022/10/21 07:01:43;;;;;;;5.83;2.67;;;14.30;99.90;;;;;;5053163;28;20201;-60
2022/10/21 07:04:10;;;;;;;4.13;2.90;;;14.30;99.90;;;;;;5052853;28;20722;-60
2022/10/21 07:06:38;;;;;;;7.80;2.50;;;14.30;99.90;;;;;;5052659;28;20619;-60
2022/10/21 07:09:06;;;;;;;3.97;2.70;;;14.30;99.90;;;;;;5052632;28;20619;-60
2022/10/21 07:11:33;;;;;;;4.30;2.60;;;14.30;99.90;;;;;;5052689;28;20271;-61
2022/10/21 07:14:01;;;;;;;3.47;2.50;;;14.40;99.90;;;;;;5052918;28;20205;-60
2022/10/21 07:16:29;;;;;;;7.13;2.40;;;14.40;99.90;;;;;;5052549;28;20237;-60
2022/10/21 07:18:57;;;;;;;3.87;2.27;;;14.50;99.90;;;;;;5052679;28;20205;-60
2022/10/21 07:21:26;;;;;;;8.40;2.40;;;14.60;99.90;;;;;;5052391;28;20704;-59
2022/10/21 07:23:55;;;;;;;5.50;2.43;;;14.60;99.90;;;;;;5052283;28;20271;-59
2022/10/21 07:26:23;;;;;;;3.70;2.27;;;14.70;99.90;;;;;;5052335;28;20263;-60
2022/10/21 07:28:50;;;;;;;5.17;2.80;;;14.70;99.90;;;;;;5052017;28;20251;-57
2022/10/21 07:31:19;;;;;;;6.70;2.50;;;14.80;99.90;;;;;;5052526;28;20333;-58
2022/10/21 07:33:46;;;;;;;5.33;2.33;;;14.80;99.90;;;;;;5052510;28;20201;-59
2022/10/21 07:36:16;;;;;;;3.77;2.40;;;14.90;99.90;;;;;;5052106;28;20213;-60
2022/10/21 07:38:45;;;;;;;6.43;2.47;;;14.90;99.90;;;;;;5052173;28;20213;-59
2022/10/21 07:41:15;;;;;;;5.87;2.80;;;15.00;99.90;;;;;;5052031;28;20605;-59
2022/10/21 07:43:42;;;;;;;10.27;2.60;;;15.00;99.90;;;;;;5052295;28;20257;-59
2022/10/21 07:46:09;;;;;;;7.10;2.80;;;15.00;99.90;;;;;;5052224;28;20258;-59
2022/10/21 07:48:35;;;;;;;9.23;2.87;;;15.10;99.90;;;;;;5052091;28;20213;-60
2022/10/21 07:51:04;;;;;;;4.10;2.27;;;15.10;99.90;;;;;;5052001;28;20234;-59
2022/10/21 07:53:30;;;;;;;8.63;3.20;;;15.20;99.90;;;;;;5052317;28;20210;-59
2022/10/21 07:56:05;;;;;;;3.90;2.53;;;15.20;99.90;;;;;;5051734;28;20676;-60
2022/10/21 07:58:34;;;;;;;6.93;2.97;;;15.20;99.90;;;;;;5051966;28;20291;-59
2022/10/21 08:01:01;;;;;;;3.50;2.30;;;15.30;99.90;;;;;;5051836;28;20229;-60
2022/10/21 08:03:28;;;;;;;4.07;2.50;;;15.30;99.90;;;;;;5051799;28;20202;-60
2022/10/21 08:05:55;;;;;;;6.33;2.73;;;15.40;99.90;;;;;;5051814;28;20212;-60
2022/10/21 08:08:22;;;;;;;8.30;3.37;;;15.40;99.90;;;;;;5052181;28;20290;-60
2022/10/21 08:10:50;;;;;;;4.80;2.70;;;15.50;99.90;;;;;;5051663;28;20259;-60
2022/10/21 08:13:17;;;;;;;6.47;2.90;;;15.50;99.90;;;;;;5051694;28;20255;-60
2022/10/21 08:15:46;;;;;;;5.90;3.00;;;15.60;99.90;;;;;;5051989;28;20206;-59
2022/10/21 08:18:13;;;;;;;6.27;3.33;;;15.60;99.90;;;;;;5049614;28;20267;-59
2022/10/21 08:20:39;;;;;;;6.93;2.70;;;15.70;99.90;;;;;;5050871;28;20229;-60
2022/10/21 08:23:06;;;;;;;5.97;2.93;;;15.70;99.90;;;;;;5051689;28;20293;-60
2022/10/21 08:25:33;;;;;;;9.37;3.00;;;15.70;99.90;;;;;;5051656;28;20267;-60
2022/10/21 08:28:00;;;;;;;6.13;2.97;;;15.70;99.90;;;;;;5051457;28;20267;-60
2022/10/21 08:30:28;;;;;;;7.63;3.33;;;15.60;99.90;;;;;;5051398;28;20233;-59
2022/10/21 08:32:57;;;;;;;5.87;2.63;;;15.60;99.90;;;;;;5051611;28;20226;-60
2022/10/21 08:35:23;;;;;;;6.23;3.03;;;15.50;99.90;;;;;;5051345;28;20259;-60
2022/10/21 08:37:50;;;;;;;4.43;3.07;;;15.50;99.90;;;;;;5051366;28;20243;-60
2022/10/21 08:40:17;;;;;;;5.70;2.60;;;15.50;99.90;;;;;;5053012;28;20229;-60
2022/10/21 08:42:44;;;;;;;7.53;3.40;;;15.50;99.90;;;;;;5055457;28;20292;-60
2022/10/21 08:45:19;;;;;;;6.10;3.20;;;15.40;99.90;;;;;;5055326;28;20210;-59
2022/10/21 08:47:51;;;;;;;6.03;3.13;;;15.50;99.90;;;;;;5055555;28;20212;-60
2022/10/21 08:50:22;;;;;;;9.60;3.27;;;15.60;99.90;;;;;;5055303;28;20730;-59
2022/10/21 08:52:53;;;;;;;5.67;2.83;;;15.60;99.90;;;;;;5055433;28;20733;-60
2022/10/21 08:55:23;;;;;;;4.00;2.67;;;15.60;99.90;;;;;;5055372;28;20217;-60
2022/10/21 08:57:52;;;;;;;5.70;3.07;;;15.60;99.90;;;;;;5055027;28;20300;-60
2022/10/21 09:00:21;;;;;;;7.23;3.30;;;15.60;99.90;;;;;;5055145;28;20225;-60
2022/10/21 09:03:07;;;;;;;11.13;3.27;;;15.60;99.90;;;;;;5055047;28;20668;-60
2022/10/21 09:06:13;;;;;;;7.43;3.30;;;15.60;99.90;;;;;;5055218;28;20212;-61
2022/10/21 09:08:48;;;;;;;6.43;3.33;;;15.50;99.90;;;;;;5055208;28;20292;-61
2022/10/21 09:11:25;;;;;;;9.00;3.80;;;15.40;99.90;;;;;;5055223;28;20294;-60
2022/10/21 09:14:04;;;;;;;6.10;3.80;;;15.40;99.90;;;;;;5055188;28;20251;-60
2022/10/21 09:16:40;;;;;;;8.07;3.57;;;15.30;99.90;;;;;;5054608;28;20734;-60
2022/10/21 09:19:16;;;;;;;10.53;4.57;;;15.20;99.90;;;;;;5055073;28;20217;-58
2022/10/21 09:21:58;;;;;;;10.30;3.90;;;15.10;99.90;;;;;;5054939;28;20213;-60
2022/10/21 09:24:33;;;;;;;5.37;3.67;;;15.10;99.90;;;;;;5054669;28;20205;-60
2022/10/21 09:27:01;;;;;;;8.13;4.00;;;15.00;99.90;;;;;;5054248;28;20252;-60
2022/10/21 09:29:31;;;;;;;9.63;4.67;;;15.00;99.90;;;;;;5054515;28;20815;-60
2022/10/21 09:32:09;;;;;;;7.30;4.17;;;14.90;99.90;;;;;;5054703;28;20233;-60
2022/10/21 09:34:45;;;;;;;8.60;4.30;;;14.90;99.90;;;;;;5054739;28;20213;-61
2022/10/21 09:37:24;;;;;;;10.63;4.27;;;14.90;99.90;;;;;;5054254;28;20205;-61
2022/10/21 09:39:59;;;;;;;7.67;4.10;;;14.90;99.90;;;;;;5054369;28;20782;-61
2022/10/21 09:42:26;;;;;;;12.63;4.47;;;14.90;99.90;;;;;;5054536;28;20251;-61
2022/10/21 09:44:52;;;;;;;6.80;4.27;;;14.90;99.90;;;;;;5054592;28;20205;-61
2022/10/21 09:47:22;;;;;;;7.30;4.03;;;14.90;99.90;;;;;;5054131;28;20566;-61
2022/10/21 09:49:52;;;;;;;7.60;4.57;;;14.90;99.90;;;;;;5054487;28;20226;-60
2022/10/21 09:52:22;;;;;;;10.07;4.17;;;14.90;99.90;;;;;;5053616;28;20218;-61
2022/10/21 09:54:49;;;;;;;7.57;4.47;;;14.90;99.90;;;;;;5054587;28;20209;-60
2022/10/21 09:57:22;;;;;;;10.07;4.57;;;14.90;99.90;;;;;;5054276;28;20568;-60
2022/10/21 09:59:58;;;;;;;8.13;4.97;;;14.90;99.90;;;;;;5054203;28;20232;-60
2022/10/21 10:02:33;;;;;;;7.63;4.50;;;14.90;99.90;;;;;;5054100;28;20205;-61
2022/10/21 10:04:59;;;;;;;12.17;4.83;;;15.00;99.90;;;;;;5054350;28;20209;-58
2022/10/21 10:07:34;;;;;;;7.93;4.30;;;15.00;99.90;;;;;;5053638;28;20212;-61
2022/10/21 10:10:02;;;;;;;8.47;4.33;;;15.10;99.90;;;;;;5054127;28;20225;-61
2022/10/21 10:12:29;;;;;;;8.23;4.23;;;15.10;99.90;;;;;;5053864;28;20225;-61
2022/10/21 10:14:56;;;;;;;9.07;4.40;;;15.10;99.90;;;;;;5053919;28;20209;-61
2022/10/21 10:17:29;;;;;;;5.63;3.43;;;15.10;99.90;;;;;;5053911;28;20206;-61
2022/10/21 10:20:23;;;;;;;8.13;3.77;;;15.10;99.90;;;;;;5054093;28;20221;-61
2022/10/21 10:23:18;;;;;;;8.23;3.80;;;15.10;99.90;;;;;;5053772;28;20581;-61
2022/10/21 10:25:50;;;;;;;5.10;3.60;;;15.00;99.90;;;;;;5053995;28;20300;-61
2022/10/21 10:28:22;;;;;;;9.70;3.47;;;15.00;99.90;;;;;;5053902;28;20213;-61
2022/10/21 10:30:53;;;;;;;5.27;3.67;;;15.10;99.90;;;;;;5053631;28;20226;-61
2022/10/21 10:33:23;;;;;;;7.50;4.00;;;15.10;99.90;;;;;;5053738;28;20261;-61
2022/10/21 10:35:52;;;;;;;5.20;3.63;;;15.10;99.90;;;;;;5053544;28;20210;-61
2022/10/21 10:38:25;;;;;;;6.33;3.87;;;15.20;99.90;;;;;;5053468;28;20239;-61
2022/10/21 10:40:52;;;;;;;7.90;3.07;;;15.20;99.90;;;;;;5053637;28;20271;-61
2022/10/21 10:43:25;;;;;;;10.37;3.77;;;15.10;99.90;;;;;;5053454;28;20239;-60
2022/10/21 10:45:55;;;;;;;5.73;3.53;;;15.20;99.90;;;;;;5053409;28;20209;-63
2022/10/21 10:48:26;;;;;;;5.60;3.97;;;15.30;99.90;;;;;;5053030;28;20255;-61
2022/10/21 10:50:53;;;;;;;6.20;3.83;;;15.30;99.90;;;;;;5053236;28;20599;-61
2022/10/21 10:53:33;;;;;;;6.53;3.63;;;15.40;99.90;;;;;;5053034;28;20644;-61
2022/10/21 10:56:18;;;;;;;5.50;3.60;;;15.40;99.90;;;;;;5053753;28;20206;-60
2022/10/21 10:58:51;;;;;;;5.87;3.40;;;15.40;99.90;;;;;;5053617;28;20202;-61
2022/10/21 11:01:24;;;;;;;7.60;3.50;;;15.20;99.90;;;;;;5053031;28;20577;-61
2022/10/21 11:03:54;;;;;;;4.33;3.20;;;15.20;99.90;;;;;;5051853;28;20248;-61
2022/10/21 11:06:33;;;;;;;6.70;2.83;;;15.20;99.90;;;;;;5052738;28;20286;-60
2022/10/21 11:09:02;;;;;;;6.53;2.90;;;15.20;99.90;;;;;;5053143;28;20209;-61
2022/10/21 11:11:35;;;;;;;4.37;2.77;;;15.10;99.90;;;;;;5052621;28;20260;-61
2022/10/21 11:14:02;;;;;;;7.20;3.00;;;15.10;99.90;;;;;;5052485;28;20283;-61
2022/10/21 11:16:42;;;;;;;5.93;3.00;;;15.10;99.90;;;;;;5052503;28;20271;-61
2022/10/21 11:19:15;;;;;;;4.40;3.03;;;15.00;99.90;;;;;;5052942;28;20259;-59
2022/10/21 11:21:48;;;;;;;3.57;2.80;;;15.00;99.90;;;;;;5052786;28;20690;-60
2022/10/21 11:24:39;;;;;;;4.90;2.80;;;15.00;99.90;;;;;;5052577;28;20202;-61
2022/10/21 11:27:14;;;;;;;5.70;2.67;;;15.00;99.90;;;;;;5052245;28;20210;-61
2022/10/21 11:29:51;;;;;;;3.80;2.83;;;15.10;99.90;;;;;;5052654;28;20233;-60
2022/10/21 11:32:28;;;;;;;7.17;2.80;;;15.20;99.90;;;;;;5052261;28;20185;-60
2022/10/21 11:35:01;;;;;;;5.10;2.60;;;15.20;99.90;;;;;;5052703;28;20213;-61
2022/10/21 11:37:43;;;;;;;4.83;2.80;;;15.20;99.90;;;;;;5049801;28;20206;-63
2022/10/21 11:40:18;;;;;;;5.30;2.90;;;15.20;99.90;;;;;;5050903;28;20253;-62
2022/10/21 11:42:48;;;;;;;7.60;2.80;;;15.30;99.90;;;;;;5051884;28;20280;-63
2022/10/21 11:45:39;;;;;;;4.47;2.70;;;15.30;99.90;;;;;;5052276;28;20446;-65
2022/10/21 11:48:16;;;;;;;4.07;2.33;;;15.30;99.90;;;;;;5050707;28;20782;-66
2022/10/21 11:50:56;;;;;;;6.90;2.40;;;15.40;99.90;;;;;;5051876;28;20225;-68
2022/10/21 11:53:35;;;;;;;3.97;2.57;;;15.40;99.90;;;;;;5051458;28;20232;-68
2022/10/21 11:56:14;;;;;;;2.63;1.80;;;15.40;99.90;;;;;;5051618;28;20232;-62
2022/10/21 11:58:52;;;;;;;4.97;1.90;;;15.50;99.90;;;;;;5051111;28;20213;-61
2022/10/21 12:01:28;;;;;;;3.60;1.90;;;15.40;99.90;;;;;;5043810;28;20263;-64
2022/10/21 12:04:14;;;;;;;5.40;1.90;;;15.50;99.90;;;;;;5047346;28;20201;-59
2022/10/21 12:06:47;;;;;;;3.90;1.90;;;15.50;99.90;;;;;;5052099;28;20308;-62
2022/10/21 12:09:17;;;;;;;6.33;2.20;;;15.60;99.90;;;;;;5051805;28;20255;-62
2022/10/21 12:11:50;;;;;;;3.77;2.10;;;15.70;99.90;;;;;;5050206;28;20209;-63
2022/10/21 12:14:25;;;;;;;6.03;2.30;;;15.70;99.90;;;;;;5051559;28;20225;-62
2022/10/21 12:16:54;;;;;;;3.63;1.87;;;15.80;99.90;;;;;;5050715;28;20254;-63
2022/10/21 12:19:22;;;;;;;5.77;2.40;;;15.90;99.90;;;;;;5051113;28;20205;-62
2022/10/21 12:21:49;;;;;;;4.63;2.30;;;16.00;99.90;;;;;;5050577;28;20205;-63
2022/10/21 12:24:27;;;;;;;7.43;2.83;;;16.10;99.90;;;;;;5051561;28;20296;-62
2022/10/21 12:27:03;;;;;;;3.87;1.90;;;16.30;99.90;;;;;;5050744;28;20216;-62
2022/10/21 12:29:42;;;;;;;4.47;2.03;;;16.30;99.90;;;;;;5050859;28;20327;-57
2022/10/21 12:32:19;;;;;;;4.67;1.90;;;16.50;99.90;;;;;;5051000;28;20201;-62
2022/10/21 12:34:46;;;;;;;6.30;2.10;;;16.60;99.90;;;;;;5050746;28;20243;-62
2022/10/21 12:37:43;;;;;;;4.20;1.93;;;16.70;99.90;;;;;;5050972;28;20594;-62
2022/10/21 12:40:13;;;;;;;3.90;1.67;;;16.90;99.90;;;;;;5050000;28;20229;-62
2022/10/21 12:42:46;;;;;;;4.27;1.50;;;16.90;99.90;;;;;;5050660;28;20213;-61
2022/10/21 12:45:28;;;;;;;1.87;1.13;;;17.00;99.90;;;;;;5050331;28;20804;-63
2022/10/21 12:47:55;;;;;;;5.07;1.90;;;17.10;99.90;;;;;;5050543;28;20209;-66
2022/10/21 12:50:28;;;;;;;11.57;6.23;;;17.40;99.90;;;;;;5050106;28;20740;-66
2022/10/21 12:53:23;;;;;;;6.03;2.77;;;17.50;99.90;;;;;;5050310;28;20636;-64
2022/10/21 12:55:52;;;;;;;2.07;1.40;;;17.60;99.90;;;;;;5050635;28;20260;-64
2022/10/21 12:58:31;;;;;;;2.63;1.33;;;17.50;99.90;;;;;;5051030;28;20229;-63